Time;durP1;ratioP1;P1;durP2;ratioP2;P2;SDS_P1;SDS_P2;PMS_P1;PMS_P2;Temp;Humidity;BMP_temperature;BMP_pressure;BME280_temperature;BME280_humidity;BME280_pressure;Samples;Min_cycle;Max_cycle;Signal;HPM_P1;HPM_P2
2022/02/22 00:01:47;;;;;;;3.27;1.40;;;6.70;1.00;;;;;;5083986;28;20421;-75
2022/02/22 00:04:33;;;;;;;6.33;1.70;;;6.80;1.00;;;;;;5076031;28;20840;-76
2022/02/22 00:10:22;;;;;;;6.97;1.67;;;6.70;1.00;;;;;;5088353;28;20518;-75
2022/02/22 00:13:05;;;;;;;7.57;1.90;;;6.70;1.00;;;;;;5078246;28;20570;-77
2022/02/22 00:15:35;;;;;;;13.57;1.60;;;6.60;1.00;;;;;;5077679;28;20425;-74
2022/02/22 00:18:05;;;;;;;5.87;1.40;;;6.70;1.00;;;;;;5086747;28;20396;-74
2022/02/22 00:20:31;;;;;;;7.20;1.27;;;6.80;1.00;;;;;;5074948;28;20877;-74
2022/02/22 00:22:57;;;;;;;10.07;1.40;;;6.90;1.00;;;;;;5085759;28;20424;-74
2022/02/22 00:25:23;;;;;;;6.63;1.03;;;6.90;1.00;;;;;;5075393;28;20265;-75
2022/02/22 00:27:59;;;;;;;6.50;0.80;;;6.90;1.00;;;;;;5075818;28;20179;-73
2022/02/22 00:30:25;;;;;;;10.10;1.40;;;6.90;1.00;;;;;;5086111;28;20424;-74
2022/02/22 00:32:53;;;;;;;2.20;1.00;;;6.90;1.00;;;;;;5079962;28;20476;-74
2022/02/22 00:35:23;;;;;;;11.73;2.20;;;6.90;1.00;;;;;;5086235;28;20171;-74
2022/02/22 00:37:59;;;;;;;6.67;1.67;;;6.90;1.00;;;;;;5077145;28;20510;-74
2022/02/22 00:40:35;;;;;;;5.90;1.70;;;7.00;1.00;;;;;;5085135;28;21000;-74
2022/02/22 00:43:01;;;;;;;7.60;1.67;;;7.00;1.00;;;;;;5078184;28;20527;-74
2022/02/22 00:45:27;;;;;;;17.27;2.70;;;7.00;1.00;;;;;;5082523;28;20515;-75
2022/02/22 00:47:53;;;;;;;7.23;1.90;;;7.00;1.00;;;;;;5087324;28;20182;-76
2022/02/22 00:50:19;;;;;;;6.80;1.40;;;7.10;1.00;;;;;;5075469;28;20210;-75
2022/02/22 00:52:44;;;;;;;10.73;1.40;;;7.00;1.00;;;;;;5075526;28;20210;-77
2022/02/22 00:55:29;;;;;;;5.50;1.40;;;7.10;1.00;;;;;;5079825;28;20437;-75
2022/02/22 00:57:55;;;;;;;13.53;1.23;;;7.10;1.00;;;;;;5080348;28;20252;-76
2022/02/22 01:00:21;;;;;;;5.07;1.70;;;7.10;1.00;;;;;;5075005;28;20515;-75
2022/02/22 01:02:53;;;;;;;7.17;0.90;;;7.00;1.00;;;;;;5087510;28;20211;-74
2022/02/22 01:05:23;;;;;;;7.13;1.40;;;7.00;1.00;;;;;;5083579;28;20408;-74
2022/02/22 01:07:53;;;;;;;5.20;1.47;;;7.00;1.00;;;;;;5079590;28;20436;-74
2022/02/22 01:10:23;;;;;;;10.67;1.93;;;7.00;1.00;;;;;;5073870;28;20421;-74
2022/02/22 01:12:54;;;;;;;6.93;1.40;;;7.10;1.00;;;;;;5073773;28;20539;-73
2022/02/22 01:15:24;;;;;;;6.60;1.30;;;7.10;1.00;;;;;;5076033;28;20437;-74
2022/02/22 01:17:59;;;;;;;5.90;1.30;;;7.10;1.00;;;;;;5084384;28;20935;-76
2022/02/22 01:20:36;;;;;;;6.70;1.07;;;7.10;1.00;;;;;;5086124;28;20441;-75
2022/02/22 01:23:12;;;;;;;7.13;1.40;;;;;;;;;;5074089;28;20405;-75
2022/02/22 01:25:37;;;;;;;3.83;1.40;;;7.10;1.00;;;;;;5082965;28;20485;-75
2022/02/22 01:28:17;;;;;;;9.23;1.07;;;7.10;1.00;;;;;;5087704;28;20459;-75
2022/02/22 01:31:17;;;;;;;11.40;1.60;;;7.10;1.00;;;;;;5075053;28;20186;-75
2022/02/22 01:33:47;;;;;;;8.63;2.17;;;7.10;1.00;;;;;;5081002;28;20868;-73
2022/02/22 01:36:17;;;;;;;11.20;1.67;;;7.10;1.00;;;;;;5076772;28;20432;-74
2022/02/22 01:38:54;;;;;;;10.90;1.33;;;7.10;1.00;;;;;;5075202;28;20386;-73
2022/02/22 01:41:25;;;;;;;4.43;1.20;;;7.10;1.00;;;;;;5087483;28;20450;-74
2022/02/22 01:44:01;;;;;;;11.63;1.40;;;7.10;1.00;;;;;;5084141;28;20404;-73
2022/02/22 01:46:52;;;;;;;8.53;1.37;;;7.00;1.00;;;;;;5091492;28;20465;-76
2022/02/22 01:49:35;;;;;;;3.13;0.80;;;7.00;1.00;;;;;;5081266;28;20421;-76
2022/02/22 01:52:05;;;;;;;5.60;1.30;;;6.90;1.00;;;;;;5072311;28;20428;-76
2022/02/22 01:54:36;;;;;;;3.97;1.00;;;6.90;1.00;;;;;;5087678;28;20834;-76
2022/02/22 01:57:23;;;;;;;6.20;1.40;;;6.90;1.00;;;;;;5081612;28;20417;-75
2022/02/22 01:59:53;;;;;;;14.40;1.37;;;6.90;1.00;;;;;;5075937;28;20431;-76
2022/02/22 02:02:23;;;;;;;3.90;1.07;;;6.80;1.00;;;;;;5083057;28;20427;-75
2022/02/22 02:04:49;;;;;;;7.07;1.80;;;6.70;1.00;;;;;;5080714;28;20503;-75
2022/02/22 02:07:17;;;;;;;2.10;0.73;;;8.90;1.00;;;;;;5082298;28;20528;-75
2022/02/22 02:09:43;;;;;;;5.70;1.20;;;6.70;1.00;;;;;;5077285;28;20178;-75
2022/02/22 02:12:11;;;;;;;12.23;1.40;;;6.60;1.00;;;;;;5080247;28;20397;-75
2022/02/22 02:14:41;;;;;;;11.03;1.70;;;6.60;1.00;;;;;;5089991;28;20182;-75
2022/02/22 02:17:17;;;;;;;16.40;2.30;;;6.60;1.00;;;;;;5084640;28;20424;-75
2022/02/22 02:19:43;;;;;;;3.93;1.10;;;6.70;1.00;;;;;;5080090;28;20421;-75
2022/02/22 02:22:10;;;;;;;9.50;2.07;;;6.50;1.00;;;;;;5087308;28;20475;-75
2022/02/22 02:24:41;;;;;;;13.13;1.60;;;6.50;1.00;;;;;;5084842;28;20198;-75
2022/02/22 02:27:11;;;;;;;26.20;1.80;;;6.60;1.00;;;;;;5078746;28;20975;-75
2022/02/22 02:29:44;;;;;;;8.63;1.63;;;6.60;1.00;;;;;;5079556;28;20756;-75
2022/02/22 02:32:12;;;;;;;13.70;2.10;;;6.70;1.00;;;;;;5084812;28;20462;-74
2022/02/22 02:34:41;;;;;;;10.17;1.67;;;6.70;1.00;;;;;;5091608;28;20452;-73
2022/02/22 02:37:24;;;;;;;6.53;1.40;;;6.70;1.00;;;;;;5086310;28;20508;-74
2022/02/22 02:39:50;;;;;;;10.80;1.40;;;6.80;1.00;;;;;;5080727;28;20461;-74
2022/02/22 02:42:17;;;;;;;14.27;1.20;;;6.80;1.00;;;;;;5096348;28;20417;-74
2022/02/22 02:44:48;;;;;;;6.50;1.67;;;6.80;1.00;;;;;;5092661;28;20423;-74
2022/02/22 02:47:15;;;;;;;5.23;1.40;;;6.80;1.00;;;;;;5084360;28;20912;-74
2022/02/22 02:49:42;;;;;;;6.80;1.60;;;6.80;1.00;;;;;;5080858;28;20495;-74
2022/02/22 02:52:32;;;;;;;16.10;1.63;;;6.70;1.00;;;;;;5085702;28;20501;-73
2022/02/22 02:54:58;;;;;;;5.90;2.00;;;6.70;1.00;;;;;;5076523;28;20460;-74
2022/02/22 02:57:23;;;;;;;4.97;1.57;;;6.60;1.00;;;;;;5094863;28;20458;-74
2022/02/22 02:59:49;;;;;;;4.17;1.27;;;6.60;1.00;;;;;;5084139;28;20553;-74
2022/02/22 03:02:17;;;;;;;20.87;1.90;;;6.60;1.00;;;;;;5081067;28;20273;-75
2022/02/22 03:04:58;;;;;;;4.03;1.13;;;6.60;1.00;;;;;;5077284;28;20179;-75
2022/02/22 03:07:41;;;;;;;4.53;1.57;;;6.50;1.00;;;;;;5083111;28;20516;-75
2022/02/22 03:10:35;;;;;;;9.27;1.20;;;6.40;1.00;;;;;;5086485;28;20927;-76
2022/02/22 03:13:12;;;;;;;12.50;1.87;;;6.40;1.00;;;;;;5079709;28;20445;-75
2022/02/22 03:15:41;;;;;;;11.73;1.30;;;6.30;1.00;;;;;;5080648;28;20428;-76
2022/02/22 03:18:23;;;;;;;6.97;1.53;;;6.30;1.00;;;;;;5076954;28;20478;-74
2022/02/22 03:20:49;;;;;;;17.37;1.77;;;6.30;1.00;;;;;;5092474;28;20481;-73
2022/02/22 03:23:19;;;;;;;9.33;1.73;;;6.30;1.00;;;;;;5086231;28;20409;-73
2022/02/22 03:25:46;;;;;;;9.40;1.40;;;6.30;1.00;;;;;;5078884;28;20214;-73
2022/02/22 03:28:23;;;;;;;11.27;1.90;;;6.30;1.00;;;;;;5094074;28;20477;-74
2022/02/22 03:30:49;;;;;;;11.00;1.67;;;6.30;1.00;;;;;;5075989;28;20432;-73
2022/02/22 03:33:18;;;;;;;6.93;1.63;;;6.30;1.00;;;;;;5083941;28;20453;-76
2022/02/22 03:35:47;;;;;;;22.13;2.27;;;6.30;1.00;;;;;;5085166;28;20469;-75
2022/02/22 03:38:13;;;;;;;6.50;1.50;;;6.30;1.00;;;;;;5090265;28;20963;-75
2022/02/22 03:40:39;;;;;;;15.07;1.43;;;6.20;1.00;;;;;;5075663;28;20508;-75
2022/02/22 03:43:06;;;;;;;13.87;1.70;;;6.30;1.00;;;;;;5091470;28;20182;-75
2022/02/22 03:45:36;;;;;;;15.63;2.03;;;6.30;1.00;;;;;;5096321;28;20398;-75
2022/02/22 03:48:01;;;;;;;11.97;1.30;;;6.20;1.00;;;;;;5083832;28;20474;-75
2022/02/22 03:50:27;;;;;;;17.03;1.43;;;6.20;1.00;;;;;;5076488;28;20421;-75
2022/02/22 03:52:53;;;;;;;24.63;2.20;;;6.10;1.00;;;;;;5090538;28;20288;-75
2022/02/22 03:55:19;;;;;;;13.13;1.53;;;6.10;1.00;;;;;;5075701;28;20559;-75
2022/02/22 03:57:53;;;;;;;5.10;1.00;;;6.00;1.00;;;;;;5086875;28;20175;-75
2022/02/22 04:00:30;;;;;;;7.90;1.10;;;6.00;1.00;;;;;;5087044;28;20452;-75
2022/02/22 04:02:56;;;;;;;5.80;1.07;;;5.90;1.00;;;;;;5078992;28;20825;-74
2022/02/22 04:05:22;;;;;;;11.23;1.73;;;5.90;1.00;;;;;;5075969;28;20518;-73
2022/02/22 04:07:53;;;;;;;7.47;1.67;;;5.90;1.00;;;;;;5079707;28;20420;-74
2022/02/22 04:10:23;;;;;;;5.50;1.40;;;5.80;1.00;;;;;;5078999;28;20530;-74
2022/02/22 04:12:49;;;;;;;8.27;0.83;;;5.80;1.00;;;;;;5083722;28;20521;-73
2022/02/22 04:15:17;;;;;;;4.67;1.53;;;5.80;1.00;;;;;;5079172;28;20908;-74
2022/02/22 04:17:43;;;;;;;8.43;1.60;;;5.80;1.00;;;;;;5076426;28;20428;-75
2022/02/22 04:20:12;;;;;;;6.50;1.60;;;5.80;1.00;;;;;;5077130;28;20965;-75
2022/02/22 04:22:41;;;;;;;12.50;1.60;;;5.80;1.00;;;;;;5086067;28;20214;-75
2022/02/22 04:25:08;;;;;;;9.80;1.70;;;5.80;1.00;;;;;;5084611;28;20526;-75
2022/02/22 04:27:41;;;;;;;14.20;1.60;;;5.90;1.00;;;;;;5085117;28;20916;-75
2022/02/22 04:30:08;;;;;;;4.20;1.30;;;5.90;1.00;;;;;;5093044;28;20428;-75
2022/02/22 04:32:47;;;;;;;7.60;1.30;;;6.00;1.00;;;;;;5095458;28;20422;-74
2022/02/22 04:35:17;;;;;;;5.37;1.60;;;6.10;1.00;;;;;;5082031;28;20436;-74
2022/02/22 04:37:47;;;;;;;7.93;1.47;;;6.20;1.00;;;;;;5087255;28;20416;-74
2022/02/22 04:40:25;;;;;;;5.43;1.60;;;6.10;1.00;;;;;;5079536;28;20405;-74
2022/02/22 04:42:53;;;;;;;12.03;1.80;;;6.10;1.00;;;;;;5080705;28;20405;-73
2022/02/22 04:45:19;;;;;;;6.53;1.63;;;6.30;1.00;;;;;;5095068;28;20400;-74
2022/02/22 04:47:48;;;;;;;7.17;1.43;;;6.30;1.00;;;;;;5080166;28;20413;-75
2022/02/22 04:50:29;;;;;;;13.87;1.80;;;6.30;1.00;;;;;;5080086;28;20208;-75
2022/02/22 04:52:55;;;;;;;9.77;2.00;;;6.30;1.00;;;;;;5073953;28;20840;-75
2022/02/22 04:55:21;;;;;;;5.93;1.33;;;6.30;1.00;;;;;;5082300;28;20479;-76
2022/02/22 04:57:47;;;;;;;10.93;1.70;;;6.40;1.00;;;;;;5077322;28;20209;-75
2022/02/22 05:00:18;;;;;;;13.67;1.77;;;6.40;1.00;;;;;;5081324;28;20425;-76
2022/02/22 05:02:46;;;;;;;12.93;1.40;;;6.40;1.00;;;;;;5075978;28;20790;-74
2022/02/22 05:05:17;;;;;;;7.47;1.57;;;6.30;1.00;;;;;;5088853;28;20482;-74
2022/02/22 05:07:43;;;;;;;5.60;1.40;;;6.40;1.00;;;;;;5094239;28;20416;-74
2022/02/22 05:10:10;;;;;;;6.83;1.33;;;6.40;1.00;;;;;;5091785;28;20448;-74
2022/02/22 05:12:35;;;;;;;13.83;2.03;;;6.40;1.00;;;;;;5081463;28;20413;-73
2022/02/22 05:15:11;;;;;;;9.70;1.93;;;6.30;1.00;;;;;;5087928;28;20745;-74
2022/02/22 05:17:37;;;;;;;23.50;1.77;;;6.30;1.00;;;;;;5079184;28;20197;-74
2022/02/22 05:20:06;;;;;;;5.23;1.43;;;6.20;1.00;;;;;;5083040;28;20434;-76
2022/02/22 05:22:59;;;;;;;9.33;1.37;;;6.20;1.00;;;;;;5073764;28;20427;-76
2022/02/22 05:25:25;;;;;;;7.20;1.37;;;6.10;1.00;;;;;;5085692;28;20439;-75
2022/02/22 05:28:05;;;;;;;13.53;2.03;;;6.10;1.00;;;;;;5074080;28;20405;-75
2022/02/22 05:30:32;;;;;;;11.03;1.33;;;6.10;1.00;;;;;;5087477;28;20175;-75
2022/02/22 05:33:03;;;;;;;8.93;1.47;;;6.10;1.00;;;;;;5074723;28;20530;-76
2022/02/22 05:35:35;;;;;;;8.47;2.40;;;6.00;1.00;;;;;;5093172;28;20421;-75
2022/02/22 05:38:05;;;;;;;17.37;2.23;;;5.90;1.00;;;;;;5078347;28;20410;-76
2022/02/22 05:40:31;;;;;;;12.57;2.27;;;;;;;;;;5077066;28;20425;-77
2022/02/22 05:42:57;;;;;;;11.90;1.73;;;6.00;1.00;;;;;;5075633;28;20439;-76
2022/02/22 05:45:23;;;;;;;12.30;2.30;;;6.00;1.00;;;;;;5079597;28;20498;-76
2022/02/22 05:47:49;;;;;;;19.57;2.10;;;;;;;;;;5080287;28;20174;-76
2022/02/22 05:50:15;;;;;;;9.83;1.43;;;;;;;;;;5073325;28;20240;-77
2022/02/22 05:52:41;;;;;;;7.80;1.30;;;;;;;;;;5079355;28;20434;-76
2022/02/22 05:55:07;;;;;;;7.87;1.87;;;6.10;1.00;;;;;;5072916;28;20935;-76
2022/02/22 05:57:32;;;;;;;11.50;2.20;;;6.10;1.00;;;;;;5085404;28;20978;-76
2022/02/22 05:59:58;;;;;;;6.37;1.40;;;6.10;1.00;;;;;;5077818;28;20417;-77
2022/02/22 06:02:24;;;;;;;14.43;2.03;;;6.20;1.00;;;;;;5085120;28;20175;-75
2022/02/22 06:04:49;;;;;;;3.50;1.37;;;6.80;1.00;;;;;;5079700;28;20246;-75
2022/02/22 06:07:20;;;;;;;12.53;2.23;;;6.70;1.00;;;;;;5079039;28;20202;-74
2022/02/22 06:09:46;;;;;;;3.90;1.13;;;;;;;;;;5075110;28;20169;-74
2022/02/22 06:12:12;;;;;;;16.90;1.90;;;;;;;;;;5079641;28;20979;-74
2022/02/22 06:14:41;;;;;;;11.50;2.03;;;6.20;1.00;;;;;;5082925;28;20492;-80
2022/02/22 06:17:11;;;;;;;5.27;1.50;;;6.10;1.00;;;;;;5079016;28;20401;-80
2022/02/22 06:19:37;;;;;;;6.27;1.70;;;6.10;1.00;;;;;;5078733;28;20413;-83
2022/02/22 06:22:04;;;;;;;11.60;2.33;;;6.00;1.00;;;;;;5073993;28;20474;-82
2022/02/22 06:24:30;;;;;;;11.90;1.80;;;6.10;1.00;;;;;;5087022;28;20209;-76
2022/02/22 06:26:56;;;;;;;23.03;1.97;;;6.00;1.00;;;;;;5075779;28;20432;-76
2022/02/22 06:29:22;;;;;;;13.40;2.10;;;6.00;1.00;;;;;;5078504;28;20178;-81
2022/02/22 06:31:50;;;;;;;12.13;1.63;;;;;;;;;;5074272;28;21023;-78
2022/02/22 06:34:17;;;;;;;6.00;1.30;;;;;;;;;;5075760;28;20203;-77
2022/02/22 06:36:43;;;;;;;10.33;1.77;;;;;;;;;;5076662;28;20422;-77
2022/02/22 06:39:09;;;;;;;7.90;1.57;;;;;;;;;;5072372;28;20512;-74
2022/02/22 06:41:35;;;;;;;8.03;2.13;;;;;;;;;;5083085;28;20425;-75
2022/02/22 06:44:00;;;;;;;12.90;2.57;;;6.00;1.00;;;;;;5077238;28;20444;-75
2022/02/22 06:46:26;;;;;;;13.80;2.10;;;;;;;;;;5076461;28;20838;-75
2022/02/22 06:48:52;;;;;;;16.03;1.80;;;6.10;1.00;;;;;;5089055;28;20179;-76
2022/02/22 06:51:18;;;;;;;12.43;1.60;;;;;;;;;;5073499;28;20425;-77
2022/02/22 06:53:44;;;;;;;6.93;1.77;;;6.10;1.00;;;;;;5088550;28;20202;-77
2022/02/22 06:56:09;;;;;;;5.80;1.63;;;6.10;1.00;;;;;;5079223;28;20498;-77
2022/02/22 06:58:35;;;;;;;11.60;3.10;;;6.10;1.00;;;;;;5075292;28;20183;-76
2022/02/22 07:01:01;;;;;;;14.10;1.80;;;6.00;1.00;;;;;;5076060;28;20608;-77
2022/02/22 07:03:26;;;;;;;9.77;1.40;;;6.00;1.00;;;;;;5084865;28;20233;-77
2022/02/22 07:05:52;;;;;;;11.57;1.90;;;6.00;1.00;;;;;;5077956;28;20243;-76
2022/02/22 07:08:18;;;;;;;11.90;1.93;;;6.00;1.00;;;;;;5079654;28;20280;-75
2022/02/22 07:10:44;;;;;;;9.93;1.50;;;5.90;1.00;;;;;;5079901;28;20269;-74
2022/02/22 07:13:09;;;;;;;11.20;1.37;;;5.90;1.00;;;;;;5091231;28;20236;-74
2022/02/22 07:15:35;;;;;;;10.83;1.63;;;5.90;1.00;;;;;;5078457;28;20482;-74
2022/02/22 07:18:07;;;;;;;7.00;1.23;;;5.90;1.00;;;;;;5075254;28;20183;-73
2022/02/22 07:20:32;;;;;;;3.83;1.00;;;6.00;1.00;;;;;;5077395;28;20456;-75
2022/02/22 07:22:59;;;;;;;9.93;1.30;;;6.00;1.00;;;;;;5075166;28;20449;-75
2022/02/22 07:25:26;;;;;;;6.73;1.73;;;7.10;1.00;;;;;;5077473;28;20202;-75
2022/02/22 07:27:53;;;;;;;11.03;1.20;;;6.30;1.00;;;;;;5075060;28;20982;-75
2022/02/22 07:30:20;;;;;;;2.20;1.10;;;6.40;1.00;;;;;;5077325;28;20433;-75
2022/02/22 07:32:47;;;;;;;15.13;2.03;;;6.50;1.00;;;;;;5075416;28;20457;-75
2022/02/22 07:35:17;;;;;;;9.80;1.77;;;6.40;1.00;;;;;;5076076;28;20422;-73
2022/02/22 07:37:44;;;;;;;8.93;1.60;;;6.50;1.00;;;;;;5078609;28;20421;-74
2022/02/22 07:40:12;;;;;;;8.77;1.67;;;6.60;1.00;;;;;;5075079;28;20425;-74
2022/02/22 07:42:39;;;;;;;4.10;1.27;;;6.60;1.00;;;;;;5078925;28;20425;-73
2022/02/22 07:45:07;;;;;;;5.70;1.10;;;6.80;1.00;;;;;;5088538;28;20831;-75
2022/02/22 07:47:33;;;;;;;10.73;1.50;;;6.80;1.00;;;;;;5089390;28;20433;-75
2022/02/22 07:49:59;;;;;;;4.67;1.10;;;6.70;1.00;;;;;;5076146;28;20555;-75
2022/02/22 07:52:26;;;;;;;13.97;1.47;;;6.60;1.00;;;;;;5078860;28;20523;-75
2022/02/22 07:54:52;;;;;;;9.00;1.73;;;6.60;1.00;;;;;;5090850;28;20209;-75
2022/02/22 07:57:18;;;;;;;3.60;1.30;;;;;;;;;;5080107;28;20959;-75
2022/02/22 07:59:44;;;;;;;17.47;1.93;;;;;;;;;;5076463;28;20413;-75
2022/02/22 08:02:10;;;;;;;11.33;1.60;;;;;;;;;;5075036;28;20416;-76
2022/02/22 08:04:36;;;;;;;7.37;1.30;;;;;;;;;;5082058;28;20569;-75
2022/02/22 08:07:02;;;;;;;14.90;1.60;;;6.80;1.00;;;;;;5083485;28;20439;-75
2022/02/22 08:09:28;;;;;;;10.43;1.50;;;;;;;;;;5073383;28;20516;-75
2022/02/22 08:11:54;;;;;;;8.80;1.83;;;6.80;1.00;;;;;;5079172;28;20192;-75
2022/02/22 08:14:19;;;;;;;8.47;1.27;;;6.90;1.00;;;;;;5090869;28;20456;-75
2022/02/22 08:16:45;;;;;;;7.07;1.20;;;6.90;1.00;;;;;;5080620;28;20252;-75
2022/02/22 08:19:11;;;;;;;6.90;1.90;;;7.00;1.00;;;;;;5073874;28;20209;-75
2022/02/22 08:21:41;;;;;;;3.77;1.07;;;7.00;1.00;;;;;;5080748;28;20175;-76
2022/02/22 08:24:07;;;;;;;11.10;2.07;;;6.90;1.00;;;;;;5073597;28;20447;-75
2022/02/22 08:26:33;;;;;;;1.03;0.80;;;6.90;1.00;;;;;;5076436;28;20436;-75
2022/02/22 08:28:59;;;;;;;6.20;1.20;;;7.00;1.00;;;;;;5077364;28;20779;-75
2022/02/22 08:31:26;;;;;;;10.07;1.57;;;;;;;;;;5077305;28;20179;-75
2022/02/22 08:33:58;;;;;;;3.40;1.60;;;;;;;;;;5083639;28;20719;-75
2022/02/22 08:36:26;;;;;;;8.97;1.20;;;7.00;1.00;;;;;;5081133;28;20406;-76
2022/02/22 08:38:53;;;;;;;6.57;1.43;;;7.00;1.00;;;;;;5079613;28;20408;-75
2022/02/22 08:41:19;;;;;;;9.40;2.03;;;7.10;1.00;;;;;;5079737;28;20413;-76
2022/02/22 08:43:44;;;;;;;8.50;1.50;;;7.20;1.00;;;;;;5078202;28;20436;-75
2022/02/22 08:46:10;;;;;;;4.50;0.93;;;7.20;1.00;;;;;;5081071;28;20211;-76
2022/02/22 08:48:36;;;;;;;6.00;1.60;;;;;;;;;;5073634;28;20182;-75
2022/02/22 08:51:02;;;;;;;10.80;4.20;;;;;;;;;;5074472;28;20221;-77
2022/02/22 08:53:28;;;;;;;8.37;1.60;;;7.50;1.00;;;;;;5079741;28;21102;-76
2022/02/22 08:55:53;;;;;;;4.80;1.10;;;7.60;1.00;;;;;;5084805;28;20469;-76
2022/02/22 08:58:19;;;;;;;21.30;1.63;;;7.80;1.00;;;;;;5076777;28;20194;-76
2022/02/22 09:00:44;;;;;;;10.23;1.53;;;8.00;1.00;;;;;;5074297;28;20214;-76
2022/02/22 09:03:10;;;;;;;1.80;0.90;;;8.10;1.00;;;;;;5073119;28;20191;-76
2022/02/22 09:05:37;;;;;;;8.00;1.77;;;8.20;1.00;;;;;;5073535;28;20236;-74
2022/02/22 09:08:05;;;;;;;8.53;1.60;;;8.60;1.00;;;;;;5077051;28;20516;-74
2022/02/22 09:10:31;;;;;;;10.00;1.90;;;8.60;1.00;;;;;;5073884;28;20441;-74
2022/02/22 09:12:57;;;;;;;7.83;1.50;;;8.70;1.00;;;;;;5079135;28;20559;-74
2022/02/22 09:15:24;;;;;;;11.23;1.50;;;8.80;1.00;;;;;;5072777;28;20193;-74
2022/02/22 09:17:51;;;;;;;4.30;1.37;;;8.90;1.00;;;;;;5073064;28;20433;-74
2022/02/22 09:20:19;;;;;;;6.60;1.73;;;9.00;1.00;;;;;;5073963;28;20475;-75
2022/02/22 09:22:46;;;;;;;5.97;1.57;;;8.90;1.00;;;;;;5083070;28;20461;-76
2022/02/22 09:25:14;;;;;;;11.07;1.30;;;8.90;1.00;;;;;;5080350;28;20435;-75
2022/02/22 09:27:42;;;;;;;10.03;1.60;;;8.80;1.00;;;;;;5082320;28;20433;-76
2022/02/22 09:30:15;;;;;;;9.80;1.33;;;8.70;1.00;;;;;;5074703;28;20418;-76
2022/02/22 09:32:49;;;;;;;1.67;0.97;;;8.80;1.00;;;;;;5079735;28;20428;-76
2022/02/22 09:35:17;;;;;;;7.17;1.57;;;8.80;1.00;;;;;;5075265;28;20408;-76
2022/02/22 09:37:43;;;;;;;10.57;1.73;;;8.80;1.00;;;;;;5074665;28;20440;-73
2022/02/22 09:40:13;;;;;;;10.73;1.73;;;8.90;1.00;;;;;;5084622;28;20457;-73
2022/02/22 09:42:41;;;;;;;8.93;1.43;;;8.90;1.00;;;;;;5074662;28;20421;-74
2022/02/22 09:45:13;;;;;;;7.63;1.67;;;9.00;1.00;;;;;;5077923;28;20431;-73
2022/02/22 09:47:41;;;;;;;5.50;1.60;;;9.00;1.00;;;;;;5080411;28;20441;-73
2022/02/22 09:50:08;;;;;;;8.83;1.57;;;9.10;1.00;;;;;;5074748;28;20421;-73
2022/02/22 09:52:34;;;;;;;6.00;1.40;;;9.20;1.00;;;;;;5078710;28;20930;-75
2022/02/22 09:55:01;;;;;;;9.40;2.03;;;9.40;1.00;;;;;;5078603;28;20425;-76
2022/02/22 09:57:30;;;;;;;10.87;1.53;;;9.60;1.00;;;;;;5081375;28;20513;-76
2022/02/22 10:00:00;;;;;;;7.33;1.70;;;9.70;1.00;;;;;;5074595;28;20425;-76
2022/02/22 10:02:37;;;;;;;8.77;1.97;;;9.80;1.00;;;;;;5082511;28;20515;-76
2022/02/22 10:05:17;;;;;;;12.50;1.87;;;9.90;1.00;;;;;;5084146;28;20878;-76
2022/02/22 10:07:59;;;;;;;7.20;1.23;;;10.10;1.00;;;;;;5073767;28;20896;-73
2022/02/22 10:10:39;;;;;;;5.40;1.80;;;10.00;1.00;;;;;;5079660;28;20421;-73
2022/02/22 10:13:07;;;;;;;11.37;2.37;;;;;;;;;;5075773;28;20975;-76
2022/02/22 10:15:41;;;;;;;6.27;1.50;;;10.10;1.00;;;;;;5077642;28;20404;-76
2022/02/22 10:18:08;;;;;;;7.60;1.50;;;10.10;1.00;;;;;;5073352;28;20814;-77
2022/02/22 10:20:48;;;;;;;7.17;2.10;;;10.10;1.00;;;;;;5082605;28;20421;-75
2022/02/22 10:23:25;;;;;;;6.07;1.20;;;10.10;1.00;;;;;;5081829;28;20422;-78
2022/02/22 10:25:55;;;;;;;10.87;2.10;;;10.20;1.00;;;;;;5074337;28;20941;-78
2022/02/22 10:28:21;;;;;;;9.30;1.83;;;10.20;1.00;;;;;;5077683;28;20436;-78
2022/02/22 10:30:50;;;;;;;2.00;1.13;;;10.20;1.00;;;;;;5081396;28;20440;-77
2022/02/22 10:33:18;;;;;;;9.03;1.50;;;10.00;1.00;;;;;;5088841;28;20209;-77
2022/02/22 10:35:51;;;;;;;6.17;1.50;;;10.00;1.00;;;;;;5084412;28;20457;-77
2022/02/22 10:38:26;;;;;;;9.60;2.10;;;10.00;1.00;;;;;;5087283;28;20411;-77
2022/02/22 10:41:15;;;;;;;5.43;1.77;;;10.10;1.00;;;;;;5080627;28;20938;-77
2022/02/22 10:43:52;;;;;;;3.50;1.30;;;10.30;1.00;;;;;;5075474;28;20946;-76
2022/02/22 10:46:27;;;;;;;7.03;1.73;;;10.20;1.00;;;;;;5081032;28;20431;-76
2022/02/22 10:49:05;;;;;;;14.90;1.67;;;10.20;1.00;;;;;;5075639;28;20421;-77
2022/02/22 10:51:39;;;;;;;6.10;1.97;;;10.20;1.00;;;;;;5075847;28;20469;-76
2022/02/22 10:54:05;;;;;;;12.80;1.90;;;10.20;1.00;;;;;;5074021;28;20548;-76
2022/02/22 10:56:33;;;;;;;4.43;1.60;;;10.30;1.00;;;;;;5082345;28;20433;-76
2022/02/22 10:58:59;;;;;;;8.63;2.10;;;10.20;1.00;;;;;;5084031;28;20420;-76
2022/02/22 11:01:25;;;;;;;6.63;1.33;;;10.20;1.00;;;;;;5074243;28;20413;-76
2022/02/22 11:03:52;;;;;;;5.40;1.50;;;10.20;1.00;;;;;;5075375;28;20182;-77
2022/02/22 11:06:21;;;;;;;9.20;1.40;;;10.30;1.00;;;;;;5079359;28;20446;-76
2022/02/22 11:08:52;;;;;;;4.87;1.40;;;10.30;1.00;;;;;;5079604;28;20782;-77
2022/02/22 11:11:37;;;;;;;5.57;1.50;;;10.30;1.00;;;;;;5085891;28;20416;-77
2022/02/22 11:14:06;;;;;;;7.13;1.60;;;10.40;1.00;;;;;;5076629;28;20760;-77
2022/02/22 11:16:44;;;;;;;11.97;1.40;;;10.40;1.00;;;;;;5085374;28;20470;-77
2022/02/22 11:19:36;;;;;;;13.93;2.20;;;10.50;1.00;;;;;;5082056;28;20400;-77
2022/02/22 11:22:23;;;;;;;7.73;1.10;;;10.50;1.00;;;;;;5075232;28;20445;-76
2022/02/22 11:24:51;;;;;;;6.10;1.43;;;10.60;1.00;;;;;;5074797;28;20510;-77
2022/02/22 11:27:30;;;;;;;6.00;1.20;;;10.80;1.00;;;;;;5074701;28;20421;-76
2022/02/22 11:29:59;;;;;;;2.70;1.10;;;10.90;1.00;;;;;;5076264;28;20511;-77
2022/02/22 11:32:26;;;;;;;3.27;1.07;;;10.90;1.00;;;;;;5083148;28;20412;-79
2022/02/22 11:34:51;;;;;;;2.17;1.10;;;10.90;1.00;;;;;;5082387;28;20774;-77
2022/02/22 11:37:28;;;;;;;3.80;0.80;;;10.70;1.00;;;;;;5085738;28;20424;-75
2022/02/22 11:39:55;;;;;;;2.80;1.20;;;;;;;;;;5074912;28;20209;-76
2022/02/22 11:42:28;;;;;;;6.00;1.30;;;10.90;1.00;;;;;;5077609;28;20423;-76
2022/02/22 11:45:02;;;;;;;4.00;1.17;;;11.00;1.00;;;;;;5076837;28;20451;-76
2022/02/22 11:47:29;;;;;;;2.07;0.90;;;11.00;1.00;;;;;;5077265;28;20468;-76
2022/02/22 11:49:56;;;;;;;7.40;1.73;;;11.00;1.00;;;;;;5084543;28;20420;-76
2022/02/22 11:52:38;;;;;;;3.13;1.10;;;11.20;1.00;;;;;;5078199;28;20494;-77
2022/02/22 11:55:06;;;;;;;4.17;1.57;;;11.30;1.00;;;;;;5074520;28;20426;-77
2022/02/22 11:57:54;;;;;;;3.83;1.27;;;11.30;1.00;;;;;;5082745;28;20427;-77
2022/02/22 12:00:40;;;;;;;8.73;0.90;;;11.30;1.00;;;;;;5074395;28;20595;-77
2022/02/22 12:03:14;;;;;;;3.10;0.93;;;11.30;1.00;;;;;;5073798;28;20421;-77
2022/02/22 12:05:49;;;;;;;4.87;1.20;;;11.40;1.00;;;;;;5085030;28;20398;-77
2022/02/22 12:08:17;;;;;;;6.53;1.33;;;11.30;1.00;;;;;;5083352;28;20416;-76
2022/02/22 12:11:00;;;;;;;5.90;1.40;;;11.30;1.00;;;;;;5077427;28;20429;-76
2022/02/22 12:13:42;;;;;;;6.37;1.00;;;11.30;1.00;;;;;;5083470;28;20531;-76
2022/02/22 12:16:15;;;;;;;4.10;1.20;;;11.30;1.00;;;;;;5077338;28;20467;-76
2022/02/22 12:18:45;;;;;;;7.40;1.83;;;11.20;1.00;;;;;;5088299;28;20565;-76
2022/02/22 12:21:13;;;;;;;3.80;1.17;;;11.20;1.00;;;;;;5074248;28;20519;-76
2022/02/22 12:23:40;;;;;;;4.50;1.00;;;11.20;1.00;;;;;;5092176;28;20578;-78
2022/02/22 12:26:09;;;;;;;4.10;1.30;;;11.20;1.00;;;;;;5073002;28;20420;-76
2022/02/22 12:28:53;;;;;;;2.80;1.20;;;11.20;1.00;;;;;;5077825;28;20511;-77
2022/02/22 12:31:31;;;;;;;4.13;1.10;;;11.20;1.00;;;;;;5075408;28;20435;-77
2022/02/22 12:34:10;;;;;;;3.70;1.27;;;11.20;1.00;;;;;;5077370;28;20462;-77
2022/02/22 12:36:38;;;;;;;4.00;1.13;;;11.10;1.00;;;;;;5087589;28;20446;-76
2022/02/22 12:39:13;;;;;;;5.20;1.30;;;11.00;1.00;;;;;;5087568;28;20423;-78
2022/02/22 12:41:42;;;;;;;8.33;2.00;;;11.00;1.00;;;;;;5082102;28;20450;-78
2022/02/22 12:44:15;;;;;;;7.73;1.90;;;10.90;1.00;;;;;;5078605;28;20850;-78
2022/02/22 12:46:44;;;;;;;2.97;1.20;;;10.90;1.00;;;;;;5073398;28;20444;-78
2022/02/22 12:49:14;;;;;;;10.37;1.63;;;10.80;1.00;;;;;;5082879;28;20400;-77
2022/02/22 12:51:41;;;;;;;18.67;6.67;;;10.80;1.00;;;;;;5074824;28;20424;-78
2022/02/22 12:54:14;;;;;;;124.33;52.33;;;10.70;1.00;;;;;;5089105;28;20467;-77
2022/02/22 12:56:50;;;;;;;6.60;4.00;;;10.70;1.00;;;;;;5072827;28;20433;-77
2022/02/22 12:59:37;;;;;;;8.53;3.73;;;10.70;1.00;;;;;;5083912;28;20847;-76
2022/02/22 13:02:05;;;;;;;8.77;1.90;;;10.60;1.00;;;;;;5081309;28;20414;-77
2022/02/22 13:04:42;;;;;;;9.43;2.00;;;10.50;1.00;;;;;;5080295;28;20524;-76
2022/02/22 13:07:19;;;;;;;3.97;1.30;;;10.50;1.00;;;;;;5078496;28;20975;-76
2022/02/22 13:09:49;;;;;;;3.90;1.63;;;10.50;1.00;;;;;;5090687;28;20428;-76
2022/02/22 13:12:58;;;;;;;7.80;2.63;;;10.50;1.00;;;;;;5085419;28;20417;-76
2022/02/22 13:15:24;;;;;;;8.27;1.90;;;10.60;1.00;;;;;;5087541;28;20478;-77
2022/02/22 13:17:54;;;;;;;8.77;1.93;;;10.60;1.00;;;;;;5075092;28;20409;-77
2022/02/22 13:20:20;;;;;;;6.77;1.57;;;10.50;1.00;;;;;;5080345;28;20448;-76
2022/02/22 13:22:45;;;;;;;4.87;1.47;;;10.40;1.00;;;;;;5084700;28;20814;-75
2022/02/22 13:25:13;;;;;;;9.93;2.00;;;10.40;1.00;;;;;;5079197;28;20193;-75
2022/02/22 13:27:40;;;;;;;5.13;1.87;;;10.50;1.00;;;;;;5073755;28;20170;-76